Archival Weather

Heathrow

London, United Kingdom (EGLL)

Report from: Tuesday, June 18, 2024 4:20 AM BST
Current time: Monday, July 22, 2024 12:19 PM BST

Current weather – Weather history – Daily summaries
Weather forecast

Temperature14.0°C (57.2°F)
Dew point11.0°C (51.8°F)
Winds 4 kts (2.1 m/s, 4.6 mph) North (360°)
Visibility6.2 mi. (10 km)
Clouds Sky clear
Altimeter29.91 in.Hg (1013 mB)
Relative humidity82 %
Density altitude75 ft. (23 m)
Remarks Fully automated report
No clouds detected
Flight conditions Visual Meteorological Conditions
Raw dataEGLL 180320Z AUTO 36004KT 9999 NCD 14/11 Q1013
An error has occurred. This application may no longer respond until reloaded. Reload 🗙